sensor_id;sensor_type;location;lat;lon;timestamp;pressure;altitude;pressure_sealevel;temperature;humidity
6423;BME280;3244;42.708;23.288;2022-07-23T00:01:00;95301.28;;;24.23;53.55
6423;BME280;3244;42.708;23.288;2022-07-23T00:03:27;95301.31;;;24.54;52.83
6423;BME280;3244;42.708;23.288;2022-07-23T00:05:54;95307.56;;;24.72;51.94
6423;BME280;3244;42.708;23.288;2022-07-23T00:08:22;95310.41;;;24.69;52.33
6423;BME280;3244;42.708;23.288;2022-07-23T00:10:48;95312.69;;;24.62;52.30
6423;BME280;3244;42.708;23.288;2022-07-23T00:13:15;95309.47;;;24.70;52.47
6423;BME280;3244;42.708;23.288;2022-07-23T00:15:42;95309.19;;;24.73;52.30
6423;BME280;3244;42.708;23.288;2022-07-23T00:18:09;95309.47;;;24.70;52.63
6423;BME280;3244;42.708;23.288;2022-07-23T00:20:36;95307.75;;;24.59;53.02
6423;BME280;3244;42.708;23.288;2022-07-23T00:23:02;95310.19;;;24.51;52.49
6423;BME280;3244;42.708;23.288;2022-07-23T00:25:31;95307.75;;;24.50;52.68
6423;BME280;3244;42.708;23.288;2022-07-23T00:27:58;95312.56;;;24.33;52.97
6423;BME280;3244;42.708;23.288;2022-07-23T00:30:25;95312.50;;;24.24;52.45
6423;BME280;3244;42.708;23.288;2022-07-23T00:32:53;95313.34;;;24.24;52.41
6423;BME280;3244;42.708;23.288;2022-07-23T00:35:22;95312.25;;;24.27;52.49
6423;BME280;3244;42.708;23.288;2022-07-23T00:37:49;95315.94;;;24.24;52.41
6423;BME280;3244;42.708;23.288;2022-07-23T00:40:16;95316.53;;;24.17;52.38
6423;BME280;3244;42.708;23.288;2022-07-23T00:42:44;95312.47;;;23.82;53.36
6423;BME280;3244;42.708;23.288;2022-07-23T00:45:11;95308.00;;;24.05;53.12
6423;BME280;3244;42.708;23.288;2022-07-23T00:47:38;95309.44;;;24.19;53.03
6423;BME280;3244;42.708;23.288;2022-07-23T00:50:06;95312.94;;;24.08;53.01
6423;BME280;3244;42.708;23.288;2022-07-23T00:52:35;95310.34;;;23.87;53.55
6423;BME280;3244;42.708;23.288;2022-07-23T00:55:03;95313.91;;;23.54;54.70
6423;BME280;3244;42.708;23.288;2022-07-23T00:57:30;95308.91;;;23.51;54.39
6423;BME280;3244;42.708;23.288;2022-07-23T00:59:59;95316.59;;;23.53;54.45
6423;BME280;3244;42.708;23.288;2022-07-23T01:02:26;95313.91;;;23.54;54.58
6423;BME280;3244;42.708;23.288;2022-07-23T01:04:53;95314.91;;;23.74;54.09
6423;BME280;3244;42.708;23.288;2022-07-23T01:07:20;95310.66;;;23.94;53.88
6423;BME280;3244;42.708;23.288;2022-07-23T01:09:48;95313.75;;;23.88;54.15
6423;BME280;3244;42.708;23.288;2022-07-23T01:12:15;95307.88;;;23.86;53.93
6423;BME280;3244;42.708;23.288;2022-07-23T01:14:42;95310.66;;;23.94;53.56
6423;BME280;3244;42.708;23.288;2022-07-23T01:17:10;95311.91;;;23.79;54.21
6423;BME280;3244;42.708;23.288;2022-07-23T01:19:37;95310.81;;;23.81;54.47
6423;BME280;3244;42.708;23.288;2022-07-23T01:22:04;95310.25;;;23.78;54.58
6423;BME280;3244;42.708;23.288;2022-07-23T01:24:32;95308.34;;;23.80;54.37
6423;BME280;3244;42.708;23.288;2022-07-23T01:26:59;95306.22;;;23.85;54.09
6423;BME280;3244;42.708;23.288;2022-07-23T01:29:26;95308.56;;;23.88;53.68
6423;BME280;3244;42.708;23.288;2022-07-23T01:31:53;95309.13;;;23.91;53.19
6423;BME280;3244;42.708;23.288;2022-07-23T01:34:19;95311.16;;;23.88;53.38
6423;BME280;3244;42.708;23.288;2022-07-23T01:36:46;95303.03;;;24.02;52.51
6423;BME280;3244;42.708;23.288;2022-07-23T01:39:13;95301.78;;;24.17;52.03
6423;BME280;3244;42.708;23.288;2022-07-23T01:41:41;95296.66;;;24.27;51.80
6423;BME280;3244;42.708;23.288;2022-07-23T01:44:08;95308.75;;;24.37;51.21
6423;BME280;3244;42.708;23.288;2022-07-23T01:46:35;95301.44;;;24.52;51.01
6423;BME280;3244;42.708;23.288;2022-07-23T01:49:02;95299.78;;;24.51;50.51
6423;BME280;3244;42.708;23.288;2022-07-23T01:51:28;95299.53;;;24.54;50.62
6423;BME280;3244;42.708;23.288;2022-07-23T01:53:55;95301.16;;;24.46;50.75
6423;BME280;3244;42.708;23.288;2022-07-23T01:56:22;95304.97;;;24.41;50.31
6423;BME280;3244;42.708;23.288;2022-07-23T01:58:50;95304.19;;;24.09;51.18
6423;BME280;3244;42.708;23.288;2022-07-23T02:01:17;95299.25;;;23.85;52.15
6423;BME280;3244;42.708;23.288;2022-07-23T02:03:44;95304.41;;;23.76;52.44
6423;BME280;3244;42.708;23.288;2022-07-23T02:06:10;95304.00;;;23.80;52.55
6423;BME280;3244;42.708;23.288;2022-07-23T02:08:37;95309.47;;;23.98;51.89
6423;BME280;3244;42.708;23.288;2022-07-23T02:11:04;95301.41;;;24.01;51.68
6423;BME280;3244;42.708;23.288;2022-07-23T02:13:31;95301.97;;;23.84;52.65
6423;BME280;3244;42.708;23.288;2022-07-23T02:15:59;95306.53;;;23.91;52.45
6423;BME280;3244;42.708;23.288;2022-07-23T02:18:26;95307.94;;;23.95;51.77
6423;BME280;3244;42.708;23.288;2022-07-23T02:20:52;95312.44;;;24.14;51.23
6423;BME280;3244;42.708;23.288;2022-07-23T02:23:19;95305.56;;;24.24;50.89
6423;BME280;3244;42.708;23.288;2022-07-23T02:25:46;95304.31;;;24.28;50.61
6423;BME280;3244;42.708;23.288;2022-07-23T02:28:13;95310.53;;;24.16;50.72
6423;BME280;3244;42.708;23.288;2022-07-23T02:30:40;95302.38;;;24.00;51.32
6423;BME280;3244;42.708;23.288;2022-07-23T02:33:08;95306.34;;;24.04;51.37
6423;BME280;3244;42.708;23.288;2022-07-23T02:35:35;95308.44;;;24.10;50.97
6423;BME280;3244;42.708;23.288;2022-07-23T02:38:02;95303.94;;;24.12;50.75
6423;BME280;3244;42.708;23.288;2022-07-23T02:40:29;95310.91;;;23.91;51.50
6423;BME280;3244;42.708;23.288;2022-07-23T02:42:55;95310.78;;;23.92;51.19
6423;BME280;3244;42.708;23.288;2022-07-23T02:45:22;95312.06;;;23.98;51.50
6423;BME280;3244;42.708;23.288;2022-07-23T02:47:49;95317.09;;;23.79;51.82
6423;BME280;3244;42.708;23.288;2022-07-23T02:50:17;95313.41;;;23.60;52.02
6423;BME280;3244;42.708;23.288;2022-07-23T02:52:44;95316.91;;;23.70;52.00
6423;BME280;3244;42.708;23.288;2022-07-23T02:55:11;95321.41;;;23.68;52.16
6423;BME280;3244;42.708;23.288;2022-07-23T02:57:38;95321.19;;;23.60;51.79
6423;BME280;3244;42.708;23.288;2022-07-23T03:00:06;95329.22;;;23.57;51.97
6423;BME280;3244;42.708;23.288;2022-07-23T03:02:33;95340.88;;;23.52;52.21
6423;BME280;3244;42.708;23.288;2022-07-23T03:05:00;95336.06;;;23.47;52.62
6423;BME280;3244;42.708;23.288;2022-07-23T03:07:28;95336.16;;;23.25;52.97
6423;BME280;3244;42.708;23.288;2022-07-23T03:09:55;95344.47;;;23.39;52.54
6423;BME280;3244;42.708;23.288;2022-07-23T03:12:21;95334.19;;;23.49;52.40
6423;BME280;3244;42.708;23.288;2022-07-23T03:14:48;95339.00;;;23.54;52.60
6423;BME280;3244;42.708;23.288;2022-07-23T03:17:15;95343.16;;;23.45;52.71
6423;BME280;3244;42.708;23.288;2022-07-23T03:19:42;95339.00;;;23.54;52.23
6423;BME280;3244;42.708;23.288;2022-07-23T03:22:09;95346.06;;;23.63;52.25
6423;BME280;3244;42.708;23.288;2022-07-23T03:24:37;95347.34;;;23.68;51.98
6423;BME280;3244;42.708;23.288;2022-07-23T03:27:23;95341.38;;;23.46;52.49
6423;BME280;3244;42.708;23.288;2022-07-23T03:29:51;95357.84;;;23.24;53.58
6423;BME280;3244;42.708;23.288;2022-07-23T03:32:18;95356.69;;;22.94;54.36
6423;BME280;3244;42.708;23.288;2022-07-23T03:34:44;95359.13;;;23.18;54.01
6423;BME280;3244;42.708;23.288;2022-07-23T03:37:11;95356.22;;;23.55;52.82
6423;BME280;3244;42.708;23.288;2022-07-23T03:39:40;95354.97;;;24.02;51.73
6423;BME280;3244;42.708;23.288;2022-07-23T03:42:07;95364.81;;;24.61;50.32
6423;BME280;3244;42.708;23.288;2022-07-23T03:44:34;95357.75;;;25.03;49.00
6423;BME280;3244;42.708;23.288;2022-07-23T03:47:02;95359.78;;;25.39;48.13
6423;BME280;3244;42.708;23.288;2022-07-23T03:49:29;95354.53;;;25.20;48.60
6423;BME280;3244;42.708;23.288;2022-07-23T03:51:55;95358.63;;;25.13;48.67
6423;BME280;3244;42.708;23.288;2022-07-23T03:54:22;95358.44;;;25.05;48.59
6423;BME280;3244;42.708;23.288;2022-07-23T03:56:51;95359.47;;;25.33;47.83
6423;BME280;3244;42.708;23.288;2022-07-23T03:59:17;95355.81;;;25.55;46.98
6423;BME280;3244;42.708;23.288;2022-07-23T04:01:44;95361.03;;;25.45;47.26
6423;BME280;3244;42.708;23.288;2022-07-23T04:04:11;95352.75;;;24.90;48.10
6423;BME280;3244;42.708;23.288;2022-07-23T04:06:38;95359.41;;;24.53;49.34
6423;BME280;3244;42.708;23.288;2022-07-23T04:09:04;95354.00;;;24.35;50.25
6423;BME280;3244;42.708;23.288;2022-07-23T04:11:31;95364.84;;;24.08;51.05
6423;BME280;3244;42.708;23.288;2022-07-23T04:13:59;95364.63;;;24.53;49.49
6423;BME280;3244;42.708;23.288;2022-07-23T04:16:26;95361.78;;;24.86;48.85
6423;BME280;3244;42.708;23.288;2022-07-23T04:18:54;95361.50;;;25.20;48.20
6423;BME280;3244;42.708;23.288;2022-07-23T04:21:20;95372.13;;;25.47;47.21
6423;BME280;3244;42.708;23.288;2022-07-23T04:23:47;95366.78;;;25.58;47.24
6423;BME280;3244;42.708;23.288;2022-07-23T04:26:14;95376.22;;;25.59;47.05
6423;BME280;3244;42.708;23.288;2022-07-23T04:28:41;95359.28;;;25.84;46.57
6423;BME280;3244;42.708;23.288;2022-07-23T04:31:09;95366.00;;;25.67;46.87
6423;BME280;3244;42.708;23.288;2022-07-23T04:33:36;95372.97;;;25.76;46.72
6423;BME280;3244;42.708;23.288;2022-07-23T04:36:04;95361.34;;;25.81;46.85
6423;BME280;3244;42.708;23.288;2022-07-23T04:38:30;95369.44;;;25.97;46.70
6423;BME280;3244;42.708;23.288;2022-07-23T04:40:58;95374.63;;;26.16;45.69
6423;BME280;3244;42.708;23.288;2022-07-23T04:43:25;95369.84;;;26.40;45.30
6423;BME280;3244;42.708;23.288;2022-07-23T04:45:52;95368.47;;;26.36;45.19
6423;BME280;3244;42.708;23.288;2022-07-23T04:48:20;95375.97;;;26.49;45.36
6423;BME280;3244;42.708;23.288;2022-07-23T04:50:47;95377.03;;;26.66;44.80
6423;BME280;3244;42.708;23.288;2022-07-23T04:53:14;95379.25;;;26.61;45.01
6423;BME280;3244;42.708;23.288;2022-07-23T04:55:41;95377.34;;;26.53;45.60
6423;BME280;3244;42.708;23.288;2022-07-23T04:58:07;95377.38;;;26.43;45.66
6423;BME280;3244;42.708;23.288;2022-07-23T05:00:34;95373.13;;;26.42;45.69
6423;BME280;3244;42.708;23.288;2022-07-23T05:03:01;95369.28;;;26.47;45.65
6423;BME280;3244;42.708;23.288;2022-07-23T05:05:29;95371.69;;;26.67;45.45
6423;BME280;3244;42.708;23.288;2022-07-23T05:07:56;95368.31;;;26.09;46.61
6423;BME280;3244;42.708;23.288;2022-07-23T05:10:23;95372.44;;;26.02;47.33
6423;BME280;3244;42.708;23.288;2022-07-23T05:12:50;95364.91;;;25.80;47.91
6423;BME280;3244;42.708;23.288;2022-07-23T05:15:16;95379.53;;;26.48;46.09
6423;BME280;3244;42.708;23.288;2022-07-23T05:17:43;95377.50;;;26.98;44.88
6423;BME280;3244;42.708;23.288;2022-07-23T05:20:10;95374.13;;;27.70;43.29
6423;BME280;3244;42.708;23.288;2022-07-23T05:22:39;95371.06;;;27.93;43.48
6423;BME280;3244;42.708;23.288;2022-07-23T05:25:06;95375.81;;;29.10;40.61
6423;BME280;3244;42.708;23.288;2022-07-23T05:27:33;95370.88;;;30.08;38.93
6423;BME280;3244;42.708;23.288;2022-07-23T05:30:00;95363.63;;;31.30;36.81
6423;BME280;3244;42.708;23.288;2022-07-23T05:32:27;95366.19;;;33.28;33.59
6423;BME280;3244;42.708;23.288;2022-07-23T05:34:53;95362.88;;;34.83;30.90
6423;BME280;3244;42.708;23.288;2022-07-23T05:37:20;95368.75;;;36.55;28.16
6423;BME280;3244;42.708;23.288;2022-07-23T05:39:49;95372.25;;;37.53;26.83
6423;BME280;3244;42.708;23.288;2022-07-23T05:42:16;95369.25;;;38.19;25.67
6423;BME280;3244;42.708;23.288;2022-07-23T05:44:42;95367.75;;;39.22;24.26
6423;BME280;3244;42.708;23.288;2022-07-23T05:47:09;95355.59;;;39.81;22.72
6423;BME280;3244;42.708;23.288;2022-07-23T05:49:37;95359.50;;;40.38;22.35
6423;BME280;3244;42.708;23.288;2022-07-23T05:52:04;95358.72;;;40.73;22.20
6423;BME280;3244;42.708;23.288;2022-07-23T05:54:33;95359.69;;;39.10;23.61
6423;BME280;3244;42.708;23.288;2022-07-23T05:57:02;95360.09;;;38.15;24.25
6423;BME280;3244;42.708;23.288;2022-07-23T05:59:29;95368.41;;;37.87;24.84
6423;BME280;3244;42.708;23.288;2022-07-23T06:01:56;95366.94;;;38.29;24.60
6423;BME280;3244;42.708;23.288;2022-07-23T06:04:23;95357.56;;;38.58;24.10
6423;BME280;3244;42.708;23.288;2022-07-23T06:06:49;95353.06;;;38.52;24.29
6423;BME280;3244;42.708;23.288;2022-07-23T06:09:16;95358.47;;;37.24;26.43
6423;BME280;3244;42.708;23.288;2022-07-23T06:11:43;95350.69;;;37.36;25.84
6423;BME280;3244;42.708;23.288;2022-07-23T06:14:11;95351.38;;;37.63;25.55
6423;BME280;3244;42.708;23.288;2022-07-23T06:16:38;95350.38;;;36.66;26.99
6423;BME280;3244;42.708;23.288;2022-07-23T06:19:05;95353.97;;;37.31;25.66
6423;BME280;3244;42.708;23.288;2022-07-23T06:21:31;95354.44;;;37.66;25.50
6423;BME280;3244;42.708;23.288;2022-07-23T06:23:58;95353.63;;;38.04;25.09
6423;BME280;3244;42.708;23.288;2022-07-23T06:26:25;95349.03;;;37.41;26.11
6423;BME280;3244;42.708;23.288;2022-07-23T06:28:52;95354.00;;;37.76;25.62
6423;BME280;3244;42.708;23.288;2022-07-23T06:31:20;95351.06;;;37.46;26.31
6423;BME280;3244;42.708;23.288;2022-07-23T06:33:47;95356.34;;;36.35;26.73
6423;BME280;3244;42.708;23.288;2022-07-23T06:36:14;95342.69;;;36.52;27.62
6423;BME280;3244;42.708;23.288;2022-07-23T06:38:40;95347.34;;;36.63;27.33
6423;BME280;3244;42.708;23.288;2022-07-23T06:41:07;95349.81;;;36.44;27.34
6423;BME280;3244;42.708;23.288;2022-07-23T06:43:34;95348.94;;;35.85;28.65
6423;BME280;3244;42.708;23.288;2022-07-23T06:46:01;95348.44;;;35.61;29.24
6423;BME280;3244;42.708;23.288;2022-07-23T06:48:29;95342.03;;;35.36;29.37
6423;BME280;3244;42.708;23.288;2022-07-23T06:50:55;95341.91;;;35.16;29.03
6423;BME280;3244;42.708;23.288;2022-07-23T06:53:22;95340.81;;;35.32;28.77
6423;BME280;3244;42.708;23.288;2022-07-23T06:55:49;95339.34;;;34.60;30.30
6423;BME280;3244;42.708;23.288;2022-07-23T06:58:16;95346.84;;;33.93;31.20
6423;BME280;3244;42.708;23.288;2022-07-23T07:00:44;95341.75;;;33.91;31.50
6423;BME280;3244;42.708;23.288;2022-07-23T07:03:11;95338.53;;;33.74;30.82
6423;BME280;3244;42.708;23.288;2022-07-23T07:05:40;95339.69;;;33.65;31.73
6423;BME280;3244;42.708;23.288;2022-07-23T07:08:06;95345.59;;;33.53;32.38
6423;BME280;3244;42.708;23.288;2022-07-23T07:10:33;95340.84;;;33.12;31.74
6423;BME280;3244;42.708;23.288;2022-07-23T07:13:00;95337.81;;;32.56;33.09
6423;BME280;3244;42.708;23.288;2022-07-23T07:15:27;95339.41;;;32.42;33.12
6423;BME280;3244;42.708;23.288;2022-07-23T07:17:53;95339.91;;;32.23;33.00
6423;BME280;3244;42.708;23.288;2022-07-23T07:20:20;95336.06;;;32.49;32.86
6423;BME280;3244;42.708;23.288;2022-07-23T07:22:48;95331.25;;;32.52;32.87
6423;BME280;3244;42.708;23.288;2022-07-23T07:25:15;95326.69;;;32.31;32.49
6423;BME280;3244;42.708;23.288;2022-07-23T07:27:42;95327.88;;;32.29;32.71
6423;BME280;3244;42.708;23.288;2022-07-23T07:30:11;95326.44;;;32.18;32.74
6423;BME280;3244;42.708;23.288;2022-07-23T07:32:39;95328.19;;;32.63;32.87
6423;BME280;3244;42.708;23.288;2022-07-23T07:35:06;95323.75;;;32.93;32.21
6423;BME280;3244;42.708;23.288;2022-07-23T07:37:33;95318.50;;;33.08;31.87
6423;BME280;3244;42.708;23.288;2022-07-23T07:40:02;95321.91;;;33.23;31.75
6423;BME280;3244;42.708;23.288;2022-07-23T07:42:29;95319.31;;;33.38;31.65
6423;BME280;3244;42.708;23.288;2022-07-23T07:44:57;95317.31;;;33.61;31.14
6423;BME280;3244;42.708;23.288;2022-07-23T07:47:24;95322.47;;;33.69;31.08
6423;BME280;3244;42.708;23.288;2022-07-23T07:49:51;95319.81;;;33.48;31.25
6423;BME280;3244;42.708;23.288;2022-07-23T07:52:18;95313.34;;;33.51;31.17
6423;BME280;3244;42.708;23.288;2022-07-23T07:54:44;95305.78;;;33.62;30.99
6423;BME280;3244;42.708;23.288;2022-07-23T07:57:13;95306.81;;;33.83;31.21
6423;BME280;3244;42.708;23.288;2022-07-23T07:59:40;95308.97;;;33.58;30.75
6423;BME280;3244;42.708;23.288;2022-07-23T08:02:06;95308.19;;;33.42;31.11
6423;BME280;3244;42.708;23.288;2022-07-23T08:04:33;95307.19;;;33.43;31.38
6423;BME280;3244;42.708;23.288;2022-07-23T08:07:00;95317.31;;;33.10;31.36
6423;BME280;3244;42.708;23.288;2022-07-23T08:09:27;95309.16;;;33.05;31.60
6423;BME280;3244;42.708;23.288;2022-07-23T08:11:53;95311.03;;;33.26;31.80
6423;BME280;3244;42.708;23.288;2022-07-23T08:14:21;95308.81;;;33.44;31.21
6423;BME280;3244;42.708;23.288;2022-07-23T08:16:48;95304.00;;;33.69;31.40
6423;BME280;3244;42.708;23.288;2022-07-23T08:19:15;95304.38;;;33.81;31.75
6423;BME280;3244;42.708;23.288;2022-07-23T08:21:42;95302.38;;;33.68;31.42
6423;BME280;3244;42.708;23.288;2022-07-23T08:24:08;95296.72;;;33.71;30.98
6423;BME280;3244;42.708;23.288;2022-07-23T08:26:35;95302.78;;;33.65;31.12
6423;BME280;3244;42.708;23.288;2022-07-23T08:29:02;95302.44;;;33.54;31.55
6423;BME280;3244;42.708;23.288;2022-07-23T08:31:30;95298.50;;;33.64;31.45
6423;BME280;3244;42.708;23.288;2022-07-23T08:33:58;95296.06;;;33.63;31.19
6423;BME280;3244;42.708;23.288;2022-07-23T08:36:25;95295.63;;;33.44;31.62
6423;BME280;3244;42.708;23.288;2022-07-23T08:38:52;95294.59;;;33.60;31.19
6423;BME280;3244;42.708;23.288;2022-07-23T08:41:20;95293.72;;;33.74;31.14
6423;BME280;3244;42.708;23.288;2022-07-23T08:43:47;95298.09;;;33.67;31.30
6423;BME280;3244;42.708;23.288;2022-07-23T08:46:13;95289.25;;;33.54;31.79
6423;BME280;3244;42.708;23.288;2022-07-23T08:48:42;95297.25;;;33.60;31.71
6423;BME280;3244;42.708;23.288;2022-07-23T08:51:09;95294.59;;;33.60;31.33
6423;BME280;3244;42.708;23.288;2022-07-23T08:53:36;95284.81;;;33.54;31.94
6423;BME280;3244;42.708;23.288;2022-07-23T08:56:04;95277.59;;;33.63;31.51
6423;BME280;3244;42.708;23.288;2022-07-23T08:58:31;95275.09;;;33.76;32.25
6423;BME280;3244;42.708;23.288;2022-07-23T09:00:59;95275.63;;;33.86;31.00
6423;BME280;3244;42.708;23.288;2022-07-23T09:03:27;95280.72;;;33.88;31.11
6423;BME280;3244;42.708;23.288;2022-07-23T09:05:58;95280.50;;;34.10;30.24
6423;BME280;3244;42.708;23.288;2022-07-23T09:08:34;95271.50;;;34.05;29.68
6423;BME280;3244;42.708;23.288;2022-07-23T09:11:03;95270.88;;;34.03;30.42
6423;BME280;3244;42.708;23.288;2022-07-23T09:13:34;95273.44;;;33.75;30.79
6423;BME280;3244;42.708;23.288;2022-07-23T09:16:04;95277.28;;;33.94;30.81
6423;BME280;3244;42.708;23.288;2022-07-23T09:18:33;95273.84;;;34.21;31.06
6423;BME280;3244;42.708;23.288;2022-07-23T09:21:16;95268.34;;;34.44;30.73
6423;BME280;3244;42.708;23.288;2022-07-23T09:23:45;95269.81;;;34.46;30.44
6423;BME280;3244;42.708;23.288;2022-07-23T09:26:27;95275.09;;;34.25;30.32
6423;BME280;3244;42.708;23.288;2022-07-23T09:29:02;95268.47;;;34.29;29.70
6423;BME280;3244;42.708;23.288;2022-07-23T09:31:34;95267.97;;;34.19;29.44
6423;BME280;3244;42.708;23.288;2022-07-23T09:34:10;95260.56;;;34.29;29.84
6423;BME280;3244;42.708;23.288;2022-07-23T09:36:38;95265.47;;;34.32;29.70
6423;BME280;3244;42.708;23.288;2022-07-23T09:39:06;95265.09;;;34.42;30.37
6423;BME280;3244;42.708;23.288;2022-07-23T09:41:38;95250.03;;;34.64;29.86
6423;BME280;3244;42.708;23.288;2022-07-23T09:44:10;95248.50;;;34.83;28.44
6423;BME280;3244;42.708;23.288;2022-07-23T09:46:38;95248.50;;;34.83;27.42
6423;BME280;3244;42.708;23.288;2022-07-23T09:49:15;95242.53;;;34.74;27.09
6423;BME280;3244;42.708;23.288;2022-07-23T09:51:52;95248.00;;;34.72;26.47
6423;BME280;3244;42.708;23.288;2022-07-23T09:54:25;95242.16;;;34.77;26.59
6423;BME280;3244;42.708;23.288;2022-07-23T09:56:54;95239.78;;;34.82;25.74
6423;BME280;3244;42.708;23.288;2022-07-23T09:59:23;95239.00;;;34.95;27.29
6423;BME280;3244;42.708;23.288;2022-07-23T10:01:53;95239.06;;;35.14;26.55
6423;BME280;3244;42.708;23.288;2022-07-23T10:04:22;95238.34;;;35.34;26.78
6423;BME280;3244;42.708;23.288;2022-07-23T10:06:53;95231.84;;;35.43;26.69
6423;BME280;3244;42.708;23.288;2022-07-23T10:09:26;95230.63;;;35.32;26.10
6423;BME280;3244;42.708;23.288;2022-07-23T10:11:56;95228.41;;;35.49;25.72
6423;BME280;3244;42.708;23.288;2022-07-23T10:14:30;95227.38;;;35.43;25.99
6423;BME280;3244;42.708;23.288;2022-07-23T10:17:00;95223.94;;;35.43;25.35
6423;BME280;3244;42.708;23.288;2022-07-23T10:19:27;95218.03;;;35.34;24.52
6423;BME280;3244;42.708;23.288;2022-07-23T10:21:58;95217.41;;;35.32;24.61
6423;BME280;3244;42.708;23.288;2022-07-23T10:24:41;95218.84;;;35.35;24.78
6423;BME280;3244;42.708;23.288;2022-07-23T10:27:30;95213.97;;;35.38;24.59
6423;BME280;3244;42.708;23.288;2022-07-23T10:30:01;95213.97;;;35.38;23.66
6423;BME280;3244;42.708;23.288;2022-07-23T10:32:37;95217.41;;;35.32;24.37
6423;BME280;3244;42.708;23.288;2022-07-23T10:35:13;95207.25;;;35.36;23.84
6423;BME280;3244;42.708;23.288;2022-07-23T10:37:48;95212.25;;;35.18;23.89
6423;BME280;3244;42.708;23.288;2022-07-23T10:40:17;95205.34;;;35.17;24.42
6423;BME280;3244;42.708;23.288;2022-07-23T10:42:44;95200.56;;;35.33;24.15
6423;BME280;3244;42.708;23.288;2022-07-23T10:45:30;95196.09;;;35.47;23.73
6423;BME280;3244;42.708;23.288;2022-07-23T10:48:13;95195.25;;;35.40;23.72
6423;BME280;3244;42.708;23.288;2022-07-23T10:50:40;95195.28;;;35.46;22.25
6423;BME280;3244;42.708;23.288;2022-07-23T10:53:11;95196.69;;;35.36;22.34
6423;BME280;3244;42.708;23.288;2022-07-23T10:55:41;95194.88;;;35.36;22.54
6423;BME280;3244;42.708;23.288;2022-07-23T10:58:09;95188.16;;;35.47;22.21
6423;BME280;3244;42.708;23.288;2022-07-23T11:00:36;95183.88;;;35.66;21.40
6423;BME280;3244;42.708;23.288;2022-07-23T11:03:05;95184.50;;;35.74;20.08
6423;BME280;3244;42.708;23.288;2022-07-23T11:05:41;95181.09;;;35.87;18.92
6423;BME280;3244;42.708;23.288;2022-07-23T11:08:15;95175.41;;;34.83;20.01
6423;BME280;3244;42.708;23.288;2022-07-23T11:10:45;95164.13;;;34.61;19.53
6423;BME280;3244;42.708;23.288;2022-07-23T11:13:42;95167.50;;;34.96;20.54
6423;BME280;3244;42.708;23.288;2022-07-23T11:16:19;95169.78;;;35.06;21.08
6423;BME280;3244;42.708;23.288;2022-07-23T11:19:04;95152.59;;;35.36;20.75
6423;BME280;3244;42.708;23.288;2022-07-23T11:21:48;95149.72;;;35.44;19.92
6423;BME280;3244;42.708;23.288;2022-07-23T11:24:19;95148.31;;;35.55;20.08
6423;BME280;3244;42.708;23.288;2022-07-23T11:26:55;95148.09;;;35.43;19.33
6423;BME280;3244;42.708;23.288;2022-07-23T11:29:41;95145.03;;;35.73;20.59
6423;BME280;3244;42.708;23.288;2022-07-23T11:32:18;95151.34;;;35.92;20.49
6423;BME280;3244;42.708;23.288;2022-07-23T11:34:46;95140.97;;;36.03;19.90
6423;BME280;3244;42.708;23.288;2022-07-23T11:37:28;95151.34;;;35.98;19.99
6423;BME280;3244;42.708;23.288;2022-07-23T11:39:57;95147.69;;;35.99;19.54
6423;BME280;3244;42.708;23.288;2022-07-23T11:42:24;95135.13;;;35.88;19.23
6423;BME280;3244;42.708;23.288;2022-07-23T11:44:51;95135.47;;;35.65;19.15
6423;BME280;3244;42.708;23.288;2022-07-23T11:47:22;95131.22;;;35.64;19.10
6423;BME280;3244;42.708;23.288;2022-07-23T11:49:54;95133.47;;;35.81;19.18
6423;BME280;3244;42.708;23.288;2022-07-23T11:52:21;95138.34;;;35.70;18.10
6423;BME280;3244;42.708;23.288;2022-07-23T11:54:49;95130.44;;;35.84;18.82
6423;BME280;3244;42.708;23.288;2022-07-23T11:57:18;95131.81;;;35.93;17.76
6423;BME280;3244;42.708;23.288;2022-07-23T11:59:47;95120.25;;;35.87;18.23
6423;BME280;3244;42.708;23.288;2022-07-23T12:02:16;95121.25;;;35.99;18.88
6423;BME280;3244;42.708;23.288;2022-07-23T12:04:46;95117.59;;;35.94;18.13
6423;BME280;3244;42.708;23.288;2022-07-23T12:07:27;95122.06;;;36.00;18.77
6423;BME280;3244;42.708;23.288;2022-07-23T12:09:56;95126.53;;;36.06;18.87
6423;BME280;3244;42.708;23.288;2022-07-23T12:12:24;95119.81;;;36.10;19.11
6423;BME280;3244;42.708;23.288;2022-07-23T12:14:53;95116.81;;;35.87;17.90
6423;BME280;3244;42.708;23.288;2022-07-23T12:17:24;95113.91;;;35.95;18.82
6423;BME280;3244;42.708;23.288;2022-07-23T12:19:54;95101.94;;;35.72;18.91
6423;BME280;3244;42.708;23.288;2022-07-23T12:22:23;95106.41;;;35.92;18.64
6423;BME280;3244;42.708;23.288;2022-07-23T12:24:57;95107.84;;;35.88;18.71
6423;BME280;3244;42.708;23.288;2022-07-23T12:27:26;95103.53;;;36.00;18.55
6423;BME280;3244;42.708;23.288;2022-07-23T12:29:53;95105.38;;;36.06;17.79
6423;BME280;3244;42.708;23.288;2022-07-23T12:32:22;95100.63;;;36.21;16.29
6423;BME280;3244;42.708;23.288;2022-07-23T12:35:03;95099.06;;;36.00;17.41
6423;BME280;3244;42.708;23.288;2022-07-23T12:37:32;95099.88;;;35.94;17.35
6423;BME280;3244;42.708;23.288;2022-07-23T12:43:05;95081.28;;;36.34;17.81
6423;BME280;3244;42.708;23.288;2022-07-23T12:45:44;95093.38;;;36.61;16.65
6423;BME280;3244;42.708;23.288;2022-07-23T12:48:23;95087.22;;;36.74;16.95
6423;BME280;3244;42.708;23.288;2022-07-23T12:50:56;95081.28;;;36.72;17.07
6423;BME280;3244;42.708;23.288;2022-07-23T12:53:25;95083.16;;;36.65;17.37
6423;BME280;3244;42.708;23.288;2022-07-23T12:55:58;95081.19;;;36.54;17.43
6423;BME280;3244;42.708;23.288;2022-07-23T12:58:39;95075.81;;;36.73;17.00
6423;BME280;3244;42.708;23.288;2022-07-23T13:01:06;95070.09;;;36.70;17.21
6423;BME280;3244;42.708;23.288;2022-07-23T13:03:36;95068.06;;;36.65;16.68
6423;BME280;3244;42.708;23.288;2022-07-23T13:06:06;95076.72;;;36.54;16.99
6423;BME280;3244;42.708;23.288;2022-07-23T13:08:34;95070.84;;;36.45;17.16
6423;BME280;3244;42.708;23.288;2022-07-23T13:11:03;95070.78;;;36.01;16.45
6423;BME280;3244;42.708;23.288;2022-07-23T13:13:33;95066.22;;;36.21;17.63
6423;BME280;3244;42.708;23.288;2022-07-23T13:16:01;95067.84;;;36.22;16.81
6423;BME280;3244;42.708;23.288;2022-07-23T13:18:28;95067.94;;;36.02;16.60
6423;BME280;3244;42.708;23.288;2022-07-23T13:20:55;95068.19;;;35.48;17.41